createdAt,value
2023-04-02T00:02:30.513Z,99924.28
2023-04-02T00:05:19.771Z,99934.50
2023-04-02T00:07:52.133Z,99917.09
2023-04-02T00:10:36.974Z,99932.00
2023-04-02T00:13:03.520Z,99926.16
2023-04-02T00:15:30.801Z,99919.81
2023-04-02T00:17:58.863Z,99928.66
2023-04-02T00:20:27.575Z,99920.38
2023-04-02T00:22:56.187Z,99923.03
2023-04-02T00:25:25.742Z,99920.22
2023-04-02T00:27:52.731Z,99926.56
2023-04-02T00:30:19.371Z,99920.41
2023-04-02T00:32:46.349Z,99909.59
2023-04-02T00:35:25.552Z,99921.97
2023-04-02T00:37:52.847Z,99901.81
2023-04-02T00:40:31.848Z,99922.41
2023-04-02T00:43:01.168Z,99926.03
2023-04-02T00:45:32.075Z,99913.94
2023-04-02T00:48:13.195Z,99922.97
2023-04-02T00:50:42.836Z,99911.66
2023-04-02T00:53:24.452Z,99903.38
2023-04-02T00:55:51.675Z,99902.72
2023-04-02T00:58:30.037Z,99911.06
2023-04-02T01:00:56.984Z,99899.41
2023-04-02T01:03:30.085Z,99917.38
2023-04-02T01:06:12.667Z,99926.25
2023-04-02T01:09:02.327Z,99924.03
2023-04-02T01:12:06.437Z,99924.16
2023-04-02T01:15:12.088Z,99921.00
2023-04-02T01:17:38.621Z,99916.88
2023-04-02T01:20:34.366Z,99910.13
2023-04-02T01:23:10.181Z,99926.63
2023-04-02T01:25:57.139Z,99924.78
2023-04-02T01:28:35.623Z,99916.75
2023-04-02T01:31:03.980Z,99900.44
2023-04-02T01:33:34.313Z,99923.47
2023-04-02T01:36:12.205Z,99915.00
2023-04-02T01:39:02.234Z,99918.03
2023-04-02T01:41:36.412Z,99917.88
2023-04-02T01:44:49.350Z,99921.59
2023-04-02T01:47:19.461Z,99920.94
2023-04-02T01:49:46.531Z,99922.34
2023-04-02T01:52:19.518Z,99919.69
2023-04-02T01:54:47.775Z,99918.56
2023-04-02T01:57:14.602Z,99928.06
2023-04-02T01:59:41.285Z,99927.13
2023-04-02T02:02:13.147Z,99909.59
2023-04-02T02:04:40.715Z,99929.25
2023-04-02T02:07:14.727Z,99927.84
2023-04-02T02:09:42.557Z,99937.16
2023-04-02T02:12:13.790Z,99929.69
2023-04-02T02:14:46.982Z,99936.78
2023-04-02T02:17:19.844Z,99931.00
2023-04-02T02:19:51.857Z,99934.72
2023-04-02T02:22:29.734Z,99946.00
2023-04-02T02:25:00.634Z,99952.63
2023-04-02T02:27:27.330Z,99952.44
2023-04-02T02:29:58.510Z,99955.53
2023-04-02T02:32:31.027Z,99956.34
2023-04-02T02:35:08.520Z,99963.00
2023-04-02T02:37:43.434Z,99945.00
2023-04-02T02:40:17.397Z,99963.16
2023-04-02T02:42:51.254Z,99974.81
2023-04-02T02:45:30.358Z,99969.16
2023-04-02T02:47:59.011Z,99977.09
2023-04-02T02:50:31.829Z,99986.22
2023-04-02T02:53:02.908Z,99986.16
2023-04-02T02:55:34.570Z,99980.00
2023-04-02T02:58:07.009Z,99983.44
2023-04-02T03:00:36.096Z,99970.31
2023-04-02T03:03:08.030Z,99987.09
2023-04-02T03:05:36.084Z,99996.41
2023-04-02T03:08:06.967Z,99993.59
2023-04-02T03:10:48.646Z,99992.28
2023-04-02T03:13:21.931Z,100004.50
2023-04-02T03:16:13.016Z,100013.13
2023-04-02T03:19:17.027Z,100001.13
2023-04-02T03:21:56.747Z,100003.63
2023-04-02T03:24:39.759Z,100012.16
2023-04-02T03:27:13.918Z,100010.22
2023-04-02T03:29:46.468Z,100019.88
2023-04-02T03:32:20.098Z,100014.88
2023-04-02T03:34:49.630Z,100024.84
2023-04-02T03:37:22.440Z,100026.69
2023-04-02T03:40:02.001Z,100015.41
2023-04-02T03:42:37.212Z,100022.50
2023-04-02T03:45:28.722Z,100024.38
2023-04-02T03:47:58.475Z,100033.28
2023-04-02T03:50:31.333Z,100029.84
2023-04-02T03:53:00.294Z,100024.84
2023-04-02T03:55:30.556Z,100031.25
2023-04-02T03:58:06.974Z,100026.88
2023-04-02T04:00:55.056Z,100037.50
2023-04-02T04:03:27.022Z,100032.66
2023-04-02T04:06:00.294Z,100037.78
2023-04-02T04:08:54.823Z,100041.88
2023-04-02T04:11:30.898Z,100045.31
2023-04-02T04:14:34.787Z,100043.16
2023-04-02T04:17:30.076Z,100038.69
2023-04-02T04:20:22.295Z,100038.38
2023-04-02T04:22:50.572Z,100037.06
2023-04-02T04:25:22.695Z,100037.25
2023-04-02T04:27:58.326Z,100039.94
2023-04-02T04:30:35.002Z,100036.59
2023-04-02T04:33:15.378Z,100050.56
2023-04-02T04:35:48.730Z,100057.00
2023-04-02T04:38:39.560Z,100054.22
2023-04-02T04:41:14.215Z,100054.50
2023-04-02T04:43:46.420Z,100068.97
2023-04-02T04:46:18.457Z,100085.00
2023-04-02T04:49:06.777Z,100092.63
2023-04-02T04:51:48.025Z,100081.25
2023-04-02T04:54:16.118Z,100102.78
2023-04-02T04:56:50.073Z,100090.81
2023-04-02T04:59:50.227Z,100102.13
2023-04-02T05:02:24.165Z,100114.13
2023-04-02T05:04:52.887Z,100124.47
2023-04-02T05:07:23.425Z,100128.63
2023-04-02T05:09:55.903Z,100140.00
2023-04-02T05:12:48.555Z,100132.03
2023-04-02T05:15:42.167Z,100148.94
2023-04-02T05:18:27.282Z,100143.06
2023-04-02T05:21:02.073Z,100143.56
2023-04-02T05:23:34.414Z,100153.69
2023-04-02T05:26:12.052Z,100153.38
2023-04-02T05:28:46.367Z,100154.75
2023-04-02T05:31:31.313Z,100157.97
2023-04-02T05:33:58.129Z,100159.53
2023-04-02T05:36:27.912Z,100159.56
2023-04-02T05:38:56.458Z,100185.56
2023-04-02T05:41:36.855Z,100182.34
2023-04-02T05:44:39.056Z,100194.66
2023-04-02T05:47:12.472Z,100202.47
2023-04-02T05:49:39.311Z,100214.59
2023-04-02T05:52:12.092Z,100216.97
2023-04-02T05:54:46.352Z,100230.22
2023-04-02T05:57:19.361Z,100227.31
2023-04-02T05:59:58.785Z,100243.50
2023-04-02T06:02:33.151Z,100242.84
2023-04-02T06:05:11.761Z,100249.59
2023-04-02T06:07:59.530Z,100238.50
2023-04-02T06:10:31.370Z,100244.22
2023-04-02T06:13:08.687Z,100246.56
2023-04-02T06:15:37.542Z,100252.63
2023-04-02T06:18:16.539Z,100256.00
2023-04-02T06:20:43.274Z,100266.81
2023-04-02T06:23:13.761Z,100280.78
2023-04-02T06:25:46.831Z,100277.94
2023-04-02T06:28:21.424Z,100279.13
2023-04-02T06:30:49.246Z,100281.97
2023-04-02T06:33:18.645Z,100285.34
2023-04-02T06:35:48.731Z,100292.88
2023-04-02T06:38:25.744Z,100289.50
2023-04-02T06:40:59.965Z,100306.22
2023-04-02T06:43:38.719Z,100309.94
2023-04-02T06:46:09.736Z,100309.25
2023-04-02T06:48:37.924Z,100296.25
2023-04-02T06:51:10.774Z,100322.25
2023-04-02T06:53:41.850Z,100304.34
2023-04-02T06:56:28.592Z,100311.22
2023-04-02T06:58:55.565Z,100318.81
2023-04-02T07:01:26.952Z,100321.28
2023-04-02T07:03:54.570Z,100317.59
2023-04-02T07:06:22.540Z,100328.69
2023-04-02T07:08:49.765Z,100338.25
2023-04-02T07:11:22.153Z,100338.75
2023-04-02T07:13:50.162Z,100338.25
2023-04-02T07:16:19.642Z,100349.25
2023-04-02T07:18:49.929Z,100357.50
2023-04-02T07:21:16.736Z,100357.00
2023-04-02T07:23:43.493Z,100368.50
2023-04-02T07:26:15.506Z,100370.50
2023-04-02T07:28:42.812Z,100378.81
2023-04-02T07:31:19.645Z,100383.00
2023-04-02T07:33:46.604Z,100379.66
2023-04-02T07:36:16.516Z,100379.28
2023-04-02T07:38:48.296Z,100388.91
2023-04-02T07:41:16.299Z,100382.16
2023-04-02T07:43:43.639Z,100393.88
2023-04-02T07:46:11.724Z,100388.78
2023-04-02T07:48:38.472Z,100391.91
2023-04-02T07:51:26.879Z,100396.25
2023-04-02T07:53:57.556Z,100405.72
2023-04-02T07:56:25.865Z,100398.03
2023-04-02T07:58:53.282Z,100404.75
2023-04-02T08:01:24.608Z,100403.53
2023-04-02T08:03:55.614Z,100404.75
2023-04-02T08:06:24.097Z,100401.88
2023-04-02T08:08:50.767Z,100412.88
2023-04-02T08:11:17.456Z,100413.53
2023-04-02T08:13:44.086Z,100411.84
2023-04-02T08:16:11.201Z,100414.34
2023-04-02T08:18:37.996Z,100414.50
2023-04-02T08:21:09.272Z,100408.22
2023-04-02T08:23:36.264Z,100413.00
2023-04-02T08:26:04.277Z,100429.38
2023-04-02T08:28:31.182Z,100431.09
2023-04-02T08:30:57.887Z,100424.03
2023-04-02T08:33:24.688Z,100440.00
2023-04-02T08:35:51.682Z,100441.50
2023-04-02T08:38:21.652Z,100435.41
2023-04-02T08:40:51.891Z,100441.41
2023-04-02T08:43:41.990Z,100437.63
2023-04-02T08:46:19.723Z,100439.09
2023-04-02T08:48:55.347Z,100436.50
2023-04-02T08:51:28.305Z,100439.47
2023-04-02T08:54:00.426Z,100444.63
2023-04-02T08:56:37.412Z,100450.53
2023-04-02T08:59:12.880Z,100448.78
2023-04-02T09:01:56.899Z,100439.50
2023-04-02T09:04:25.613Z,100442.44
2023-04-02T09:06:55.124Z,100451.41
2023-04-02T09:09:23.475Z,100457.06
2023-04-02T09:12:04.218Z,100455.50
2023-04-02T09:14:42.994Z,100457.63
2023-04-02T09:17:25.014Z,100462.47
2023-04-02T09:20:13.635Z,100464.34
2023-04-02T09:22:40.212Z,100457.22
2023-04-02T09:25:14.907Z,100472.91
2023-04-02T09:27:41.533Z,100465.19
2023-04-02T09:30:25.390Z,100480.13
2023-04-02T09:32:54.623Z,100487.81
2023-04-02T09:35:27.028Z,100481.91
2023-04-02T09:38:30.774Z,100470.41
2023-04-02T09:41:01.688Z,100471.56
2023-04-02T09:43:38.937Z,100465.25
2023-04-02T09:46:21.819Z,100469.50
2023-04-02T09:49:00.880Z,100481.06
2023-04-02T09:51:36.691Z,100475.69
2023-04-02T09:54:03.315Z,100468.69
2023-04-02T09:56:35.490Z,100470.72
2023-04-02T09:59:17.281Z,100467.38
2023-04-02T10:01:56.627Z,100467.00
2023-04-02T10:04:47.994Z,100464.63
2023-04-02T10:07:31.501Z,100467.84
2023-04-02T10:10:28.629Z,100467.63
2023-04-02T10:13:01.522Z,100458.34
2023-04-02T10:15:42.406Z,100461.72
2023-04-02T10:18:21.670Z,100464.78
2023-04-02T10:20:52.769Z,100468.50
2023-04-02T10:23:19.829Z,100447.47
2023-04-02T10:26:15.970Z,100460.22
2023-04-02T10:28:57.702Z,100459.72
2023-04-02T10:31:46.826Z,100467.28
2023-04-02T10:34:23.460Z,100460.78
2023-04-02T10:36:54.420Z,100462.56
2023-04-02T10:39:46.051Z,100466.47
2023-04-02T10:42:30.996Z,100460.56
2023-04-02T10:45:04.829Z,100462.94
2023-04-02T10:47:51.680Z,100453.00
2023-04-02T10:50:32.445Z,100456.53
2023-04-02T10:53:17.967Z,100460.94
2023-04-02T10:55:51.006Z,100463.25
2023-04-02T10:58:26.326Z,100459.28
2023-04-02T11:01:06.957Z,100464.56
2023-04-02T11:03:43.480Z,100453.66
2023-04-02T11:06:21.246Z,100464.97
2023-04-02T11:08:52.381Z,100468.34
2023-04-02T11:11:23.635Z,100456.59
2023-04-02T11:13:53.014Z,100465.81
2023-04-02T11:16:20.003Z,100466.66
2023-04-02T11:19:14.474Z,100457.22
2023-04-02T11:21:55.050Z,100461.09
2023-04-02T11:24:33.634Z,100475.69
2023-04-02T11:27:26.198Z,100478.59
2023-04-02T11:29:55.781Z,100483.84
2023-04-02T11:32:24.066Z,100492.84
2023-04-02T11:35:06.738Z,100488.53
2023-04-02T11:37:33.974Z,100483.66
2023-04-02T11:40:06.004Z,100493.94
2023-04-02T11:42:46.570Z,100488.09
2023-04-02T11:45:24.978Z,100507.06
2023-04-02T11:48:06.095Z,100511.19
2023-04-02T11:50:34.878Z,100504.41
2023-04-02T11:53:05.538Z,100506.88
2023-04-02T11:55:35.040Z,100504.63
2023-04-02T11:58:04.876Z,100507.69
2023-04-02T12:00:56.323Z,100499.41
2023-04-02T12:03:37.283Z,100497.28
2023-04-02T12:06:39.959Z,100485.34
2023-04-02T12:09:30.182Z,100483.59
2023-04-02T12:12:00.748Z,100485.63
2023-04-02T12:14:36.583Z,100489.50
2023-04-02T12:17:07.736Z,100485.06
2023-04-02T12:19:36.506Z,100483.28
2023-04-02T12:22:03.505Z,100468.34
2023-04-02T12:24:31.494Z,100472.53
2023-04-02T12:27:17.357Z,100474.22
2023-04-02T12:29:44.275Z,100464.97
2023-04-02T12:32:30.019Z,100462.47
2023-04-02T12:35:04.636Z,100461.59
2023-04-02T12:37:31.492Z,100447.53
2023-04-02T12:40:16.077Z,100449.88
2023-04-02T12:42:42.825Z,100441.47
2023-04-02T12:45:29.690Z,100435.19
2023-04-02T12:47:58.796Z,100445.06
2023-04-02T12:50:26.117Z,100439.78
2023-04-02T12:52:55.164Z,100430.50
2023-04-02T12:55:27.136Z,100428.00
2023-04-02T12:57:58.440Z,100418.28
2023-04-02T13:00:25.345Z,100431.66
2023-04-02T13:03:18.630Z,100422.28
2023-04-02T13:05:57.022Z,100420.44
2023-04-02T13:08:31.083Z,100416.84
2023-04-02T13:11:03.007Z,100405.66
2023-04-02T13:13:44.846Z,100408.16
2023-04-02T13:16:17.793Z,100404.31
2023-04-02T13:18:46.839Z,100400.88
2023-04-02T13:21:16.365Z,100391.94
2023-04-02T13:23:44.177Z,100394.44
2023-04-02T13:26:13.680Z,100395.09
2023-04-02T13:28:40.309Z,100378.81
2023-04-02T13:31:14.684Z,100388.41
2023-04-02T13:33:41.726Z,100377.69
2023-04-02T13:36:14.319Z,100385.19
2023-04-02T13:38:41.251Z,100379.03
2023-04-02T13:41:28.805Z,100383.88
2023-04-02T13:43:58.095Z,100386.91
2023-04-02T13:46:27.941Z,100384.78
2023-04-02T13:48:55.858Z,100383.53
2023-04-02T13:51:26.385Z,100382.97
2023-04-02T13:53:57.535Z,100386.69
2023-04-02T13:56:25.148Z,100383.06
2023-04-02T13:58:52.168Z,100376.16
2023-04-02T14:01:22.884Z,100384.59
2023-04-02T14:03:51.425Z,100394.09
2023-04-02T14:06:23.848Z,100395.94
2023-04-02T14:08:59.196Z,100381.72
2023-04-02T14:11:44.607Z,100381.72
2023-04-02T14:14:29.140Z,100378.09
2023-04-02T14:17:21.155Z,100382.25
2023-04-02T14:20:16.338Z,100380.78
2023-04-02T14:23:11.072Z,100380.78
2023-04-02T14:26:07.738Z,100371.88
2023-04-02T14:28:57.638Z,100372.66
2023-04-02T14:31:38.790Z,100372.50
2023-04-02T14:34:38.621Z,100359.69
2023-04-02T14:37:23.173Z,100379.09
2023-04-02T14:40:01.689Z,100365.28
2023-04-02T14:42:33.304Z,100368.75
2023-04-02T14:45:08.121Z,100370.16
2023-04-02T14:47:45.200Z,100358.75
2023-04-02T14:50:17.254Z,100368.13
2023-04-02T14:52:51.545Z,100370.16
2023-04-02T14:55:24.116Z,100369.91
2023-04-02T14:57:53.866Z,100369.28
2023-04-02T15:00:24.193Z,100385.84
2023-04-02T15:02:57.943Z,100383.34
2023-04-02T15:05:38.009Z,100374.19
2023-04-02T15:08:16.028Z,100383.44
2023-04-02T15:11:08.546Z,100386.59
2023-04-02T15:13:44.360Z,100376.78
2023-04-02T15:16:21.012Z,100387.44
2023-04-02T15:18:52.397Z,100385.19
2023-04-02T15:21:29.667Z,100374.91
2023-04-02T15:24:24.434Z,100378.66
2023-04-02T15:27:25.491Z,100376.97
2023-04-02T15:30:14.906Z,100377.16
2023-04-02T15:32:43.583Z,100380.75
2023-04-02T15:35:45.595Z,100373.81
2023-04-02T15:38:21.617Z,100377.78
2023-04-02T15:40:59.290Z,100376.94
2023-04-02T15:44:06.147Z,100374.81
2023-04-02T15:46:55.948Z,100377.13
2023-04-02T15:49:45.876Z,100378.41
2023-04-02T15:52:34.964Z,100384.31
2023-04-02T15:55:37.501Z,100388.50
2023-04-02T15:58:41.853Z,100380.19
2023-04-02T16:01:30.203Z,100379.16
2023-04-02T16:04:18.051Z,100385.88
2023-04-02T16:07:31.625Z,100385.91
2023-04-02T16:10:01.265Z,100380.03
2023-04-02T16:12:30.904Z,100389.06
2023-04-02T16:15:13.978Z,100395.34
2023-04-02T16:17:50.031Z,100393.66
2023-04-02T16:20:28.574Z,100404.16
2023-04-02T16:23:01.156Z,100403.53
2023-04-02T16:25:35.212Z,100407.31
2023-04-02T16:28:17.856Z,100402.72
2023-04-02T16:30:48.614Z,100417.78
2023-04-02T16:33:27.342Z,100410.66
2023-04-02T16:35:53.918Z,100412.16
2023-04-02T16:38:48.320Z,100406.28
2023-04-02T16:41:50.628Z,100410.88
2023-04-02T16:44:28.835Z,100406.06
2023-04-02T16:47:18.357Z,100411.72
2023-04-02T16:49:57.031Z,100419.47
2023-04-02T16:52:23.573Z,100419.69
2023-04-02T16:55:27.702Z,100420.09
2023-04-02T16:58:14.150Z,100411.91
2023-04-02T17:01:18.927Z,100423.00
2023-04-02T17:03:59.312Z,100433.88
2023-04-02T17:06:43.834Z,100437.84
2023-04-02T17:09:15.547Z,100436.34
2023-04-02T17:12:10.690Z,100427.09
2023-04-02T17:15:02.449Z,100426.41
2023-04-02T17:17:30.469Z,100435.34
2023-04-02T17:20:00.733Z,100429.00
2023-04-02T17:22:31.539Z,100434.81
2023-04-02T17:25:01.604Z,100435.13
2023-04-02T17:27:41.398Z,100440.03
2023-04-02T17:30:17.597Z,100433.69
2023-04-02T17:32:44.262Z,100448.84
2023-04-02T17:35:42.543Z,100446.84
2023-04-02T17:38:34.908Z,100465.34
2023-04-02T17:41:11.920Z,100470.31
2023-04-02T17:43:55.996Z,100472.97
2023-04-02T17:46:26.085Z,100484.06
2023-04-02T17:49:02.612Z,100485.03
2023-04-02T17:51:55.328Z,100487.56
2023-04-02T17:55:01.979Z,100488.34
2023-04-02T17:57:45.587Z,100483.19
2023-04-02T18:00:21.166Z,100485.84
2023-04-02T18:03:10.504Z,100493.47
2023-04-02T18:05:48.408Z,100501.41
2023-04-02T18:08:15.871Z,100509.59
2023-04-02T18:11:03.964Z,100506.78
2023-04-02T18:13:57.745Z,100514.13
2023-04-02T18:16:42.795Z,100510.47
2023-04-02T18:19:31.225Z,100518.47
2023-04-02T18:22:07.915Z,100531.69
2023-04-02T18:25:14.946Z,100542.03
2023-04-02T18:27:56.812Z,100545.78
2023-04-02T18:30:33.347Z,100549.84
2023-04-02T18:32:59.984Z,100548.81
2023-04-02T18:35:48.259Z,100560.69
2023-04-02T18:38:31.606Z,100569.47
2023-04-02T18:41:13.193Z,100574.03
2023-04-02T18:43:51.421Z,100562.34
2023-04-02T18:46:36.972Z,100568.13
2023-04-02T18:49:22.821Z,100569.81
2023-04-02T18:52:00.400Z,100564.41
2023-04-02T18:54:34.202Z,100560.38
2023-04-02T18:57:12.362Z,100576.94
2023-04-02T18:59:51.099Z,100571.50
2023-04-02T19:02:41.495Z,100586.72
2023-04-02T19:05:37.003Z,100582.81
2023-04-02T19:08:16.515Z,100596.16
2023-04-02T19:10:51.370Z,100591.22
2023-04-02T19:13:19.743Z,100590.22
2023-04-02T19:16:05.170Z,100590.91
2023-04-02T19:19:05.633Z,100598.53
2023-04-02T19:21:34.827Z,100593.28
2023-04-02T19:24:11.234Z,100593.78
2023-04-02T19:27:06.901Z,100602.97
2023-04-02T19:29:36.230Z,100609.03
2023-04-02T19:32:14.933Z,100617.91
2023-04-02T19:34:59.581Z,100618.97
2023-04-02T19:37:41.429Z,100614.09
2023-04-02T19:40:08.641Z,100620.16
2023-04-02T19:42:52.219Z,100621.69
2023-04-02T19:45:42.044Z,100624.91
2023-04-02T19:48:31.072Z,100632.34
2023-04-02T19:50:58.054Z,100630.66
2023-04-02T19:53:24.630Z,100641.47
2023-04-02T19:55:51.404Z,100651.13
2023-04-02T19:58:30.181Z,100648.44
2023-04-02T20:00:57.369Z,100641.19
2023-04-02T20:03:24.528Z,100614.16
2023-04-02T20:05:52.105Z,100608.84
2023-04-02T20:08:19.082Z,100600.06
2023-04-02T20:10:46.350Z,100602.47
2023-04-02T20:13:13.079Z,100612.63
2023-04-02T20:15:41.385Z,100606.59
2023-04-02T20:18:09.403Z,100618.75
2023-04-02T20:20:37.565Z,100631.09
2023-04-02T20:23:04.678Z,100651.38
2023-04-02T20:25:32.056Z,100653.25
2023-04-02T20:28:00.836Z,100658.50
2023-04-02T20:30:27.375Z,100659.84
2023-04-02T20:32:55.745Z,100656.13
2023-04-02T20:35:22.583Z,100657.63
2023-04-02T20:37:49.184Z,100658.66
2023-04-02T20:40:16.010Z,100660.50
2023-04-02T20:42:42.629Z,100639.38
2023-04-02T20:45:09.931Z,100648.84
2023-04-02T20:47:36.661Z,100653.06
2023-04-02T20:50:03.428Z,100644.09
2023-04-02T20:52:30.400Z,100645.63
2023-04-02T20:54:57.470Z,100666.06
2023-04-02T20:57:26.181Z,100669.63
2023-04-02T20:59:53.122Z,100662.31
2023-04-02T21:02:19.710Z,100658.13
2023-04-02T21:04:46.367Z,100666.72
2023-04-02T21:07:12.952Z,100668.41
2023-04-02T21:09:39.514Z,100670.97
2023-04-02T21:12:06.621Z,100667.41
2023-04-02T21:14:37.779Z,100666.56
2023-04-02T21:17:06.786Z,100667.59
2023-04-02T21:19:34.540Z,100668.06
2023-04-02T21:22:01.445Z,100667.91
2023-04-02T21:24:28.099Z,100665.91
2023-04-02T21:26:54.894Z,100661.38
2023-04-02T21:29:21.476Z,100661.00
2023-04-02T21:31:48.237Z,100661.69
2023-04-02T21:34:17.018Z,100660.03
2023-04-02T21:36:46.105Z,100659.66
2023-04-02T21:39:18.205Z,100645.31
2023-04-02T21:41:47.259Z,100652.25
2023-04-02T21:44:15.425Z,100650.88
2023-04-02T21:46:42.836Z,100650.50
2023-04-02T21:49:11.803Z,100653.34
2023-04-02T21:51:40.913Z,100662.44
2023-04-02T21:54:08.067Z,100652.13
2023-04-02T21:56:40.457Z,100655.13
2023-04-02T21:59:09.039Z,100656.66
2023-04-02T22:01:42.746Z,100658.66
2023-04-02T22:04:11.723Z,100655.78
2023-04-02T22:06:40.710Z,100659.47
2023-04-02T22:09:09.584Z,100659.97
2023-04-02T22:11:37.816Z,100656.06
2023-04-02T22:14:05.889Z,100662.81
2023-04-02T22:16:34.780Z,100649.97
2023-04-02T22:19:02.729Z,100648.22
2023-04-02T22:21:30.770Z,100651.25
2023-04-02T22:24:01.670Z,100648.69
2023-04-02T22:26:28.511Z,100649.22
2023-04-02T22:28:55.343Z,100641.75
2023-04-02T22:31:24.936Z,100646.31
2023-04-02T22:33:53.889Z,100650.50
2023-04-02T22:36:22.454Z,100663.59
2023-04-02T22:38:49.481Z,100659.91
2023-04-02T22:41:27.638Z,100653.81
2023-04-02T22:43:56.667Z,100657.22
2023-04-02T22:46:25.567Z,100674.31
2023-04-02T22:48:52.701Z,100668.94
2023-04-02T22:51:21.118Z,100669.44
2023-04-02T22:53:48.627Z,100662.75
2023-04-02T22:56:18.501Z,100675.09
2023-04-02T22:58:45.610Z,100675.34
2023-04-02T23:01:15.955Z,100675.88
2023-04-02T23:03:43.145Z,100674.88
2023-04-02T23:06:17.072Z,100672.50
2023-04-02T23:08:44.145Z,100671.81
2023-04-02T23:11:13.386Z,100667.44
2023-04-02T23:13:40.885Z,100670.66
2023-04-02T23:16:11.186Z,100664.38
2023-04-02T23:18:39.371Z,100673.63
2023-04-02T23:21:06.710Z,100663.63
2023-04-02T23:23:34.043Z,100671.38
2023-04-02T23:26:08.189Z,100666.25
2023-04-02T23:28:36.087Z,100672.09
2023-04-02T23:31:04.705Z,100666.88
2023-04-02T23:33:31.750Z,100664.66
2023-04-02T23:35:58.694Z,100659.75
2023-04-02T23:38:26.715Z,100658.72
2023-04-02T23:40:53.685Z,100651.28
2023-04-02T23:43:20.478Z,100653.97
2023-04-02T23:45:48.814Z,100662.41
2023-04-02T23:48:16.534Z,100647.66
2023-04-02T23:50:46.457Z,100648.34
2023-04-02T23:53:13.571Z,100648.34
2023-04-02T23:55:40.593Z,100645.97
2023-04-02T23:58:07.342Z,100647.81
